Time;durP1;ratioP1;P1;durP2;ratioP2;P2;SDS_P1;SDS_P2;PMS_P1;PMS_P2;Temp;Humidity;BMP_temperature;BMP_pressure;BME280_temperature;BME280_humidity;BME280_pressure;Samples;Min_cycle;Max_cycle;Signal;HPM_P1;HPM_P2
2023/05/30 00:02:15;;;;;;;7.70;3.60;;;13.30;99.90;;;;;;4924874;28;20051;-82
2023/05/30 00:04:40;;;;;;;11.13;3.70;;;13.30;99.90;;;;;;4928083;29;20035;-80
2023/05/30 00:07:06;;;;;;;6.35;3.75;;;13.40;99.90;;;;;;4904305;28;20086;-79
2023/05/30 00:09:32;;;;;;;8.63;3.40;;;13.40;99.90;;;;;;4890628;29;20384;-82
2023/05/30 00:11:58;;;;;;;10.57;3.83;;;13.40;99.90;;;;;;4908642;28;20048;-78
2023/05/30 00:14:26;;;;;;;13.40;3.90;;;13.40;99.90;;;;;;4905624;29;20044;-81
2023/05/30 00:16:52;;;;;;;10.85;3.65;;;13.40;99.90;;;;;;4920580;29;20057;-79
2023/05/30 00:19:22;;;;;;;9.05;3.78;;;13.40;99.90;;;;;;4924309;29;20250;-78
2023/05/30 00:21:48;;;;;;;10.90;4.05;;;13.30;99.90;;;;;;4915161;28;20075;-81
2023/05/30 00:24:13;;;;;;;9.48;3.40;;;13.40;99.90;;;;;;4922503;29;20398;-82
2023/05/30 00:26:39;;;;;;;9.40;3.50;;;13.30;99.90;;;;;;4893142;29;20044;-80
2023/05/30 00:29:05;;;;;;;5.85;2.95;;;13.30;99.90;;;;;;4909032;29;20130;-83
2023/05/30 00:31:30;;;;;;;11.45;3.40;;;13.40;99.90;;;;;;4893502;29;20039;-82
2023/05/30 00:33:56;;;;;;;9.90;3.15;;;13.40;99.90;;;;;;4893836;29;20067;-81
2023/05/30 00:36:22;;;;;;;9.50;3.83;;;13.30;99.90;;;;;;4896581;28;20051;-81
2023/05/30 00:38:50;;;;;;;10.88;3.50;;;13.40;99.90;;;;;;4924606;28;20504;-81
2023/05/30 00:41:16;;;;;;;6.57;3.40;;;13.30;99.90;;;;;;4876487;29;20040;-79
2023/05/30 00:43:42;;;;;;;6.90;3.15;;;13.30;99.90;;;;;;4887969;28;20046;-79
2023/05/30 00:46:10;;;;;;;14.68;3.95;;;13.20;99.90;;;;;;4900193;29;20048;-81
2023/05/30 00:48:36;;;;;;;13.90;4.20;;;13.20;99.90;;;;;;4905928;29;20047;-77
2023/05/30 00:51:08;;;;;;;8.80;3.13;;;13.20;99.90;;;;;;4899748;28;20047;-81
2023/05/30 00:53:34;;;;;;;6.53;3.22;;;13.30;99.90;;;;;;4923549;28;20486;-81
2023/05/30 00:56:00;;;;;;;7.07;3.00;;;13.30;99.90;;;;;;4906557;29;20162;-80
2023/05/30 00:58:26;;;;;;;9.93;3.13;;;13.30;99.90;;;;;;4900080;28;20480;-80
2023/05/30 01:00:53;;;;;;;8.32;3.38;;;13.20;99.90;;;;;;4912547;28;20059;-81
2023/05/30 01:03:24;;;;;;;9.10;3.25;;;13.20;99.90;;;;;;4923083;29;20040;-80
2023/05/30 01:05:50;;;;;;;11.20;2.88;;;13.30;99.90;;;;;;4909685;29;20075;-81
2023/05/30 01:08:16;;;;;;;9.40;3.08;;;13.20;99.90;;;;;;4910459;28;20067;-81
2023/05/30 01:10:42;;;;;;;9.68;3.58;;;13.20;99.90;;;;;;4909636;29;20407;-80
2023/05/30 01:13:22;;;;;;;7.53;3.30;;;13.20;99.90;;;;;;4908497;28;20062;-79
2023/05/30 01:15:53;;;;;;;11.55;3.63;;;13.20;99.90;;;;;;4906358;28;20506;-78
2023/05/30 01:18:40;;;;;;;8.65;3.53;;;13.20;99.90;;;;;;4918974;28;20412;-84
2023/05/30 01:21:10;;;;;;;7.07;3.25;;;13.30;99.90;;;;;;4898671;29;20050;-78
2023/05/30 01:24:00;;;;;;;6.95;3.00;;;13.20;99.90;;;;;;4924249;29;20122;-81
2023/05/30 01:27:09;;;;;;;6.03;3.40;;;13.20;99.90;;;;;;4916781;29;20048;-77
2023/05/30 01:29:38;;;;;;;8.73;2.90;;;13.20;99.90;;;;;;4906607;29;20090;-79
2023/05/30 01:32:05;;;;;;;6.88;3.13;;;13.20;99.90;;;;;;4907820;29;20100;-80
2023/05/30 01:34:31;;;;;;;6.38;2.85;;;13.10;99.90;;;;;;4902869;28;20043;-77
2023/05/30 01:36:57;;;;;;;6.10;3.15;;;13.10;99.90;;;;;;4892046;28;20484;-78
2023/05/30 01:39:22;;;;;;;10.55;3.50;;;13.10;99.90;;;;;;4919498;29;20063;-83
2023/05/30 01:42:08;;;;;;;11.55;4.10;;;13.10;99.90;;;;;;4905567;28;20400;-82
2023/05/30 01:44:49;;;;;;;7.72;3.00;;;13.10;99.90;;;;;;4921058;29;20047;-78
2023/05/30 01:47:42;;;;;;;13.32;4.75;;;13.10;99.90;;;;;;4923622;29;20443;-82
2023/05/30 01:50:10;;;;;;;8.60;2.97;;;13.10;99.90;;;;;;4906041;29;20358;-81
2023/05/30 01:52:41;;;;;;;8.48;3.03;;;13.10;99.90;;;;;;4930992;29;20113;-78
2023/05/30 01:55:09;;;;;;;10.75;3.45;;;13.10;99.90;;;;;;4893489;29;20093;-82
2023/05/30 01:57:46;;;;;;;8.35;3.35;;;13.20;99.90;;;;;;4927081;29;20105;-83
2023/05/30 02:00:15;;;;;;;8.85;3.45;;;13.10;99.90;;;;;;4913823;29;20083;-78
2023/05/30 02:02:45;;;;;;;7.95;3.25;;;13.10;99.90;;;;;;4919323;28;20664;-81
2023/05/30 02:05:11;;;;;;;8.10;2.90;;;13.10;99.90;;;;;;4918007;28;20051;-81
2023/05/30 02:07:37;;;;;;;10.00;3.78;;;13.10;99.90;;;;;;4914499;29;20040;-84
2023/05/30 02:10:03;;;;;;;7.72;3.10;;;13.20;99.90;;;;;;4930013;29;20048;-82
2023/05/30 02:12:30;;;;;;;9.77;3.40;;;13.10;99.90;;;;;;4916256;29;20043;-83
2023/05/30 02:14:56;;;;;;;7.97;3.70;;;13.10;99.90;;;;;;4899106;28;20055;-80
2023/05/30 02:17:22;;;;;;;9.88;3.38;;;13.20;99.90;;;;;;4912729;28;20055;-81
2023/05/30 02:19:48;;;;;;;15.02;4.30;;;13.10;99.90;;;;;;4916270;28;20037;-77
2023/05/30 02:22:15;;;;;;;6.72;3.38;;;13.20;99.90;;;;;;4922248;29;20040;-84
2023/05/30 02:24:41;;;;;;;10.10;4.30;;;13.20;99.90;;;;;;4947993;28;20059;-79
2023/05/30 02:27:08;;;;;;;9.40;3.58;;;13.20;99.90;;;;;;4909342;28;20494;-80
2023/05/30 02:29:34;;;;;;;11.25;4.32;;;13.20;99.90;;;;;;4909509;29;20054;-81
2023/05/30 02:32:00;;;;;;;12.23;4.30;;;13.20;99.90;;;;;;4917375;28;20051;-80
2023/05/30 02:34:26;;;;;;;10.70;3.45;;;13.20;99.90;;;;;;4922434;28;20048;-79
2023/05/30 02:36:51;;;;;;;7.55;3.90;;;13.10;99.90;;;;;;4898283;28;20048;-80
2023/05/30 02:39:17;;;;;;;11.30;4.13;;;13.20;99.90;;;;;;4918609;28;20118;-81
2023/05/30 02:41:43;;;;;;;10.73;3.80;;;13.20;99.90;;;;;;4905565;28;20044;-84
2023/05/30 02:44:09;;;;;;;7.85;3.47;;;13.30;99.90;;;;;;4891040;29;20037;-82
2023/05/30 02:46:35;;;;;;;11.48;3.88;;;13.20;99.90;;;;;;4906586;29;20113;-80
2023/05/30 02:49:01;;;;;;;10.95;4.18;;;13.20;99.90;;;;;;4921354;28;20054;-81
2023/05/30 02:51:28;;;;;;;9.70;3.95;;;13.40;99.90;;;;;;4907994;29;20101;-81
2023/05/30 02:53:54;;;;;;;11.77;3.63;;;13.30;99.90;;;;;;4908816;29;20098;-85
2023/05/30 02:56:23;;;;;;;9.35;4.03;;;13.10;99.90;;;;;;4925618;28;20040;-82
2023/05/30 02:58:50;;;;;;;9.25;3.90;;;13.00;99.90;;;;;;4915682;29;20512;-84
2023/05/30 03:01:16;;;;;;;7.25;3.97;;;13.10;99.90;;;;;;4920863;28;20048;-80
2023/05/30 03:03:41;;;;;;;11.38;3.90;;;13.00;99.90;;;;;;4908752;28;20055;-83
2023/05/30 03:06:08;;;;;;;11.32;4.85;;;13.00;99.90;;;;;;4924493;29;20032;-81
2023/05/30 03:08:36;;;;;;;10.43;3.70;;;13.00;99.90;;;;;;4928387;28;20040;-82
2023/05/30 03:11:01;;;;;;;9.70;4.00;;;12.90;99.90;;;;;;4913434;28;20075;-87
2023/05/30 03:13:27;;;;;;;12.40;4.35;;;13.10;99.90;;;;;;4929487;29;20161;-80
2023/05/30 03:15:53;;;;;;;12.07;4.03;;;13.10;99.90;;;;;;4897320;29;20040;-80
2023/05/30 03:18:18;;;;;;;10.23;3.33;;;13.10;99.90;;;;;;4893305;29;20044;-80
2023/05/30 03:20:44;;;;;;;8.45;3.60;;;13.10;99.90;;;;;;4911901;29;20052;-83
2023/05/30 03:23:10;;;;;;;8.82;4.15;;;13.10;99.90;;;;;;4894329;28;20036;-81
2023/05/30 03:25:36;;;;;;;8.98;3.47;;;13.10;99.90;;;;;;4876896;29;20055;-82
2023/05/30 03:28:06;;;;;;;9.48;3.80;;;13.10;99.90;;;;;;4911140;28;20479;-86
2023/05/30 03:30:32;;;;;;;9.45;3.13;;;13.10;99.90;;;;;;4909120;29;20427;-79
2023/05/30 03:32:58;;;;;;;9.50;3.90;;;13.10;99.90;;;;;;4909774;29;20044;-85
2023/05/30 03:35:24;;;;;;;11.38;4.18;;;13.20;99.90;;;;;;4897263;28;20040;-85
2023/05/30 03:37:50;;;;;;;9.75;4.05;;;13.20;99.90;;;;;;4926353;28;20046;-81
2023/05/30 03:40:16;;;;;;;10.25;3.30;;;13.30;99.90;;;;;;4913636;28;20040;-84
2023/05/30 03:42:42;;;;;;;8.50;3.47;;;13.30;99.90;;;;;;4914816;28;20362;-82
2023/05/30 03:45:08;;;;;;;8.10;3.47;;;13.20;99.90;;;;;;4897352;29;20035;-82
2023/05/30 03:47:33;;;;;;;9.20;3.78;;;13.30;99.90;;;;;;4911190;29;20511;-79
2023/05/30 03:50:00;;;;;;;9.13;4.13;;;13.30;99.90;;;;;;4908988;29;20044;-81
2023/05/30 03:52:26;;;;;;;9.48;3.65;;;13.30;99.90;;;;;;4912374;28;20044;-77
2023/05/30 03:54:51;;;;;;;10.93;3.58;;;13.30;99.90;;;;;;4895342;28;20627;-82
2023/05/30 03:57:17;;;;;;;9.07;3.28;;;13.40;99.90;;;;;;4914309;28;20039;-85
2023/05/30 03:59:42;;;;;;;7.45;3.38;;;13.30;99.90;;;;;;4893955;28;20046;-89
2023/05/30 04:02:08;;;;;;;7.70;3.55;;;13.40;99.90;;;;;;4911293;29;20123;-78
2023/05/30 04:04:34;;;;;;;9.02;3.55;;;13.30;99.90;;;;;;4894492;28;20032;-84
2023/05/30 04:07:00;;;;;;;16.25;3.65;;;13.30;99.90;;;;;;4950148;28;20185;-80
2023/05/30 04:09:25;;;;;;;13.98;3.80;;;13.40;99.90;;;;;;4923915;29;20720;-78
2023/05/30 04:11:52;;;;;;;14.98;3.80;;;13.40;99.90;;;;;;4976624;28;20047;-79
2023/05/30 04:14:18;;;;;;;11.80;4.05;;;13.50;99.90;;;;;;4925486;29;20067;-78
2023/05/30 04:16:43;;;;;;;8.70;4.40;;;13.40;99.90;;;;;;4909957;29;20416;-80
2023/05/30 04:19:10;;;;;;;12.98;3.90;;;13.40;99.90;;;;;;4906795;29;20437;-78
2023/05/30 04:21:36;;;;;;;11.20;3.78;;;13.50;99.90;;;;;;4909084;28;20471;-77
2023/05/30 04:24:03;;;;;;;9.45;3.70;;;13.50;99.90;;;;;;4908698;28;20045;-76
2023/05/30 04:26:31;;;;;;;14.43;4.28;;;13.50;99.90;;;;;;4894015;28;20040;-79
2023/05/30 04:28:57;;;;;;;8.68;3.67;;;13.50;99.90;;;;;;4891577;28;20051;-78
2023/05/30 04:31:24;;;;;;;11.70;4.22;;;13.50;99.90;;;;;;4893478;29;20054;-79
2023/05/30 04:33:51;;;;;;;10.25;4.25;;;13.50;99.90;;;;;;4922669;29;20384;-83
2023/05/30 04:36:19;;;;;;;12.48;3.70;;;13.60;99.90;;;;;;4927078;29;20050;-78
2023/05/30 04:38:49;;;;;;;13.35;3.80;;;13.60;99.90;;;;;;4938150;28;20047;-81
2023/05/30 04:41:20;;;;;;;8.48;3.75;;;13.70;99.90;;;;;;4917563;29;20135;-76
2023/05/30 04:43:52;;;;;;;6.72;3.85;;;13.80;99.90;;;;;;4902536;29;20044;-79
2023/05/30 04:46:21;;;;;;;7.40;3.53;;;13.70;99.90;;;;;;4968938;28;20138;-82
2023/05/30 04:48:52;;;;;;;9.23;3.25;;;13.70;99.90;;;;;;4899175;28;20404;-76
2023/05/30 04:51:20;;;;;;;14.82;4.15;;;13.70;99.90;;;;;;4931217;29;20039;-84
2023/05/30 04:53:46;;;;;;;8.45;3.40;;;13.70;99.90;;;;;;4937328;29;20090;-76
2023/05/30 04:56:12;;;;;;;10.65;3.45;;;13.80;99.90;;;;;;4934093;29;20051;-75
2023/05/30 04:58:38;;;;;;;9.98;3.80;;;13.80;99.90;;;;;;4903506;29;20044;-87
2023/05/30 05:01:03;;;;;;;10.45;3.80;;;13.80;99.90;;;;;;4908112;29;20055;-81
2023/05/30 05:03:29;;;;;;;9.02;3.38;;;13.80;99.90;;;;;;4913822;29;20141;-81
2023/05/30 05:05:55;;;;;;;8.95;3.72;;;13.80;99.90;;;;;;4906129;28;20389;-76
2023/05/30 05:08:21;;;;;;;8.75;3.65;;;13.80;99.90;;;;;;4904253;29;20051;-82
2023/05/30 05:10:46;;;;;;;7.35;3.40;;;13.80;99.90;;;;;;4894677;28;20047;-82
2023/05/30 05:13:12;;;;;;;7.00;2.90;;;13.70;99.90;;;;;;4923862;29;20079;-81
2023/05/30 05:15:38;;;;;;;7.35;3.45;;;13.70;99.90;;;;;;4911381;28;20040;-85
2023/05/30 05:18:03;;;;;;;8.00;3.08;;;13.70;99.90;;;;;;4913466;29;20129;-77
2023/05/30 05:20:29;;;;;;;7.93;2.80;;;13.80;99.90;;;;;;4912682;29;20047;-83
2023/05/30 05:22:55;;;;;;;7.75;3.13;;;13.90;99.90;;;;;;4900790;28;20550;-79
2023/05/30 05:25:22;;;;;;;10.13;3.42;;;13.80;99.90;;;;;;4897704;28;20148;-83
2023/05/30 05:27:47;;;;;;;7.80;2.90;;;13.80;99.90;;;;;;4903424;28;20048;-79
2023/05/30 05:30:13;;;;;;;8.25;3.55;;;13.90;99.90;;;;;;4907900;28;20043;-80
2023/05/30 05:32:40;;;;;;;6.35;2.70;;;13.80;99.90;;;;;;4941318;28;20036;-79
2023/05/30 05:35:09;;;;;;;7.25;3.45;;;13.80;99.90;;;;;;4905226;28;20047;-77
2023/05/30 05:37:35;;;;;;;7.13;3.45;;;13.80;99.90;;;;;;4929798;29;20520;-80
2023/05/30 05:40:04;;;;;;;5.70;2.70;;;13.80;99.90;;;;;;4915751;29;20040;-76
2023/05/30 05:42:33;;;;;;;10.80;3.35;;;13.90;99.90;;;;;;4934305;29;20051;-76
2023/05/30 05:45:00;;;;;;;8.23;3.35;;;13.90;99.90;;;;;;4919732;29;20054;-79
2023/05/30 05:47:26;;;;;;;7.97;3.20;;;13.90;99.90;;;;;;4920367;29;20511;-76
2023/05/30 05:49:52;;;;;;;7.25;2.60;;;14.00;99.90;;;;;;4908460;29;20051;-76
2023/05/30 05:52:18;;;;;;;7.53;3.00;;;14.00;99.90;;;;;;4914664;29;20432;-79
2023/05/30 05:54:44;;;;;;;5.22;2.33;;;14.10;99.90;;;;;;4929279;29;20424;-81
2023/05/30 05:57:10;;;;;;;5.05;2.45;;;14.10;99.90;;;;;;4913478;29;20044;-79
2023/05/30 05:59:39;;;;;;;6.05;2.67;;;14.10;99.90;;;;;;4904035;28;20051;-78
2023/05/30 06:02:05;;;;;;;6.80;2.92;;;14.10;99.90;;;;;;4887741;28;20539;-79
2023/05/30 06:04:31;;;;;;;6.65;2.67;;;14.10;99.90;;;;;;4894274;28;20349;-79
2023/05/30 06:06:57;;;;;;;8.20;2.72;;;14.00;99.90;;;;;;4912281;28;20054;-85
2023/05/30 06:09:24;;;;;;;5.95;2.88;;;14.00;99.90;;;;;;4908346;28;20085;-79
2023/05/30 06:11:50;;;;;;;7.22;2.90;;;14.00;99.90;;;;;;4912616;28;20123;-79
2023/05/30 06:14:16;;;;;;;6.03;2.75;;;14.00;99.90;;;;;;4913435;28;20134;-77
2023/05/30 06:16:41;;;;;;;7.75;2.83;;;14.00;99.90;;;;;;4914998;28;20040;-79
2023/05/30 06:19:07;;;;;;;6.45;2.47;;;14.00;99.90;;;;;;4895769;28;20047;-80
2023/05/30 06:21:33;;;;;;;6.65;2.50;;;14.10;99.90;;;;;;4939530;28;20640;-77
2023/05/30 06:23:59;;;;;;;3.25;2.00;;;14.10;99.90;;;;;;4944447;28;20384;-77
2023/05/30 06:26:25;;;;;;;6.95;2.97;;;14.10;99.90;;;;;;4910972;28;20365;-73
2023/05/30 06:28:51;;;;;;;5.47;2.42;;;14.10;99.90;;;;;;4902762;29;20058;-78
2023/05/30 06:31:16;;;;;;;5.82;2.58;;;14.00;99.90;;;;;;4925489;29;20035;-80
2023/05/30 06:33:42;;;;;;;5.38;2.40;;;14.20;99.90;;;;;;4896144;29;20032;-75
2023/05/30 06:36:08;;;;;;;5.50;2.20;;;14.20;99.90;;;;;;4910813;28;20040;-76
2023/05/30 06:38:33;;;;;;;6.18;2.40;;;14.30;99.90;;;;;;4926444;28;20058;-78
2023/05/30 06:40:59;;;;;;;4.90;2.50;;;14.10;99.90;;;;;;4896763;28;20054;-80
2023/05/30 06:43:25;;;;;;;5.78;2.90;;;14.10;99.90;;;;;;4912073;28;20074;-79
2023/05/30 06:45:50;;;;;;;4.93;2.65;;;14.20;99.90;;;;;;4909129;28;20137;-79
2023/05/30 06:48:16;;;;;;;5.32;2.20;;;14.20;99.90;;;;;;4925476;29;20371;-80
2023/05/30 06:50:42;;;;;;;5.55;2.33;;;14.30;99.90;;;;;;4907771;29;20126;-79
2023/05/30 06:53:07;;;;;;;5.10;2.38;;;14.30;99.90;;;;;;4907991;28;20044;-76
2023/05/30 06:55:33;;;;;;;5.32;2.58;;;14.20;99.90;;;;;;4929999;28;20039;-80
2023/05/30 06:57:59;;;;;;;6.63;2.75;;;14.30;99.90;;;;;;4913265;28;20047;-77
2023/05/30 07:00:25;;;;;;;4.53;2.20;;;14.30;99.90;;;;;;4885149;28;20050;-79
2023/05/30 07:02:51;;;;;;;4.00;1.92;;;14.40;99.90;;;;;;4923637;29;20055;-79
2023/05/30 07:05:16;;;;;;;5.68;2.38;;;14.70;99.90;;;;;;4935570;28;20058;-81
2023/05/30 07:07:43;;;;;;;5.40;2.20;;;14.70;99.90;;;;;;4922229;28;20102;-77
2023/05/30 07:10:09;;;;;;;5.22;2.20;;;14.70;99.90;;;;;;4907678;29;20348;-84
2023/05/30 07:12:35;;;;;;;5.60;2.38;;;14.70;99.90;;;;;;4923281;29;20162;-77
2023/05/30 07:15:02;;;;;;;4.60;2.05;;;14.50;99.90;;;;;;4906046;28;20480;-79
2023/05/30 07:17:28;;;;;;;9.48;1.75;;;14.60;99.90;;;;;;4908854;29;20400;-80
2023/05/30 07:19:54;;;;;;;4.28;1.80;;;14.60;99.90;;;;;;4911258;28;20044;-79
2023/05/30 07:22:19;;;;;;;3.28;1.80;;;14.60;99.90;;;;;;4921056;28;20038;-81
2023/05/30 07:24:45;;;;;;;4.35;2.28;;;14.60;99.90;;;;;;4910906;28;20040;-78
2023/05/30 07:27:12;;;;;;;3.60;1.77;;;14.70;99.90;;;;;;4893678;28;20103;-80
2023/05/30 07:29:38;;;;;;;2.88;1.80;;;14.80;99.90;;;;;;4894555;29;20106;-82
2023/05/30 07:32:04;;;;;;;2.97;1.80;;;14.80;99.90;;;;;;4910880;29;20483;-78
2023/05/30 07:34:30;;;;;;;5.50;1.67;;;15.00;99.90;;;;;;4975297;28;20082;-78
2023/05/30 07:36:55;;;;;;;4.22;1.65;;;14.90;99.90;;;;;;4924609;28;20063;-79
2023/05/30 07:39:21;;;;;;;3.00;1.77;;;15.00;99.90;;;;;;4912921;29;20138;-79
2023/05/30 07:41:47;;;;;;;3.38;1.80;;;14.90;99.90;;;;;;4912605;29;20051;-79
2023/05/30 07:44:12;;;;;;;4.78;2.25;;;14.90;99.90;;;;;;4880437;28;20039;-77
2023/05/30 07:46:38;;;;;;;3.30;1.73;;;14.50;99.90;;;;;;4877140;29;20649;-80
2023/05/30 07:49:04;;;;;;;3.90;2.05;;;14.60;99.90;;;;;;4938517;28;20043;-80
2023/05/30 07:51:31;;;;;;;2.50;1.63;;;14.40;99.90;;;;;;4976486;28;20044;-79
2023/05/30 07:53:57;;;;;;;5.13;2.08;;;14.50;99.90;;;;;;4910279;29;20052;-77
2023/05/30 07:56:22;;;;;;;4.82;2.35;;;14.60;99.90;;;;;;4973791;28;20046;-78
2023/05/30 07:58:48;;;;;;;4.45;2.53;;;14.50;99.90;;;;;;4916567;29;20082;-80
2023/05/30 08:01:14;;;;;;;6.22;2.10;;;14.60;99.90;;;;;;4878577;29;20463;-81
2023/05/30 08:03:40;;;;;;;4.32;2.85;;;14.70;99.90;;;;;;4892098;29;20040;-80
2023/05/30 08:06:07;;;;;;;3.25;1.85;;;14.50;99.90;;;;;;4894415;29;20119;-78
2023/05/30 08:08:32;;;;;;;3.72;1.65;;;14.60;99.90;;;;;;4909031;28;20044;-77
2023/05/30 08:10:58;;;;;;;4.75;2.42;;;14.50;99.90;;;;;;4924969;29;20050;-80
2023/05/30 08:13:27;;;;;;;3.47;2.00;;;14.70;99.90;;;;;;4895570;29;20490;-80
2023/05/30 08:15:53;;;;;;;4.20;2.10;;;14.70;99.90;;;;;;4895588;29;20134;-82
2023/05/30 08:18:21;;;;;;;4.32;2.00;;;14.80;99.90;;;;;;4880157;28;20134;-80
2023/05/30 08:20:50;;;;;;;7.63;2.25;;;15.10;99.90;;;;;;4928031;28;20043;-79
2023/05/30 08:23:16;;;;;;;2.42;1.77;;;15.20;99.90;;;;;;4925998;29;20074;-81
2023/05/30 08:25:45;;;;;;;4.72;1.90;;;15.20;99.90;;;;;;4925192;28;20071;-76
2023/05/30 08:28:11;;;;;;;4.22;2.15;;;15.10;99.90;;;;;;4891571;29;20191;-80
2023/05/30 08:30:37;;;;;;;4.80;1.88;;;15.30;99.90;;;;;;4890626;29;20071;-79
2023/05/30 08:33:04;;;;;;;3.58;1.85;;;15.20;99.90;;;;;;4904044;28;20558;-77
2023/05/30 08:35:30;;;;;;;2.63;1.10;;;15.20;99.90;;;;;;4891629;29;20047;-80
2023/05/30 08:37:57;;;;;;;1.73;0.90;;;15.00;99.90;;;;;;4927364;29;20043;-78
2023/05/30 08:40:26;;;;;;;1.60;1.00;;;15.00;99.90;;;;;;4910599;29;20131;-81
2023/05/30 08:42:52;;;;;;;1.83;1.17;;;14.90;99.90;;;;;;4925775;29;20139;-81
2023/05/30 08:45:22;;;;;;;1.35;1.00;;;14.80;99.90;;;;;;4891667;28;20122;-78
2023/05/30 08:47:53;;;;;;;3.47;1.30;;;14.90;99.90;;;;;;4906392;29;20138;-78
2023/05/30 08:50:20;;;;;;;2.17;1.10;;;14.90;99.90;;;;;;4921087;29;20248;-77
2023/05/30 08:52:52;;;;;;;1.15;1.00;;;15.30;99.90;;;;;;4889945;29;20768;-79
2023/05/30 08:55:24;;;;;;;2.33;1.20;;;15.50;99.90;;;;;;4902971;28;20131;-78
2023/05/30 08:58:12;;;;;;;3.50;1.30;;;15.80;99.90;;;;;;4905169;29;20121;-77
2023/05/30 09:00:38;;;;;;;2.47;1.30;;;16.00;99.90;;;;;;4900725;28;20044;-77
2023/05/30 09:03:05;;;;;;;2.08;1.20;;;16.20;99.90;;;;;;4910563;29;20039;-79
2023/05/30 09:05:34;;;;;;;3.05;1.65;;;16.60;99.90;;;;;;4887413;29;20055;-79
2023/05/30 09:08:01;;;;;;;1.83;1.10;;;16.40;99.90;;;;;;4912045;29;20050;-80
2023/05/30 09:10:28;;;;;;;2.75;1.00;;;16.40;99.90;;;;;;4926292;29;20177;-79
2023/05/30 09:12:57;;;;;;;1.38;1.02;;;16.40;99.90;;;;;;4914404;29;20484;-75
2023/05/30 09:15:23;;;;;;;1.08;0.98;;;16.50;99.90;;;;;;4928797;29;20511;-78
2023/05/30 09:17:49;;;;;;;3.47;1.00;;;16.60;99.90;;;;;;4911337;29;20047;-76
2023/05/30 09:20:18;;;;;;;1.30;0.90;;;16.50;99.90;;;;;;4895759;29;20059;-77
2023/05/30 09:22:45;;;;;;;1.73;1.00;;;16.70;99.90;;;;;;4923216;29;20385;-78
2023/05/30 09:25:15;;;;;;;1.25;1.00;;;16.60;99.90;;;;;;4898213;29;20071;-78
2023/05/30 09:27:46;;;;;;;1.35;0.90;;;16.50;99.90;;;;;;4914576;29;20051;-77
2023/05/30 09:30:13;;;;;;;1.08;0.90;;;16.50;99.90;;;;;;4930438;29;20105;-75
2023/05/30 09:32:39;;;;;;;1.25;0.75;;;16.40;99.90;;;;;;4897967;28;20067;-77
2023/05/30 09:35:09;;;;;;;1.13;0.90;;;16.40;99.90;;;;;;4928261;29;20035;-77
2023/05/30 09:37:43;;;;;;;1.80;0.82;;;16.30;99.90;;;;;;4913641;29;20109;-74
2023/05/30 09:40:11;;;;;;;0.85;0.85;;;16.30;99.90;;;;;;4927971;29;20048;-78
2023/05/30 09:42:49;;;;;;;1.77;1.10;;;16.40;99.90;;;;;;4910261;29;20039;-75
2023/05/30 09:45:25;;;;;;;3.17;1.13;;;16.30;99.90;;;;;;4914350;29;20040;-76
2023/05/30 09:47:52;;;;;;;1.63;1.10;;;16.30;99.90;;;;;;4914839;29;20499;-73
2023/05/30 09:50:23;;;;;;;1.30;1.00;;;16.30;99.90;;;;;;4929793;29;20379;-78
2023/05/30 09:52:51;;;;;;;2.85;1.10;;;16.30;99.90;;;;;;4927780;28;20517;-77
2023/05/30 09:55:19;;;;;;;1.17;1.00;;;16.00;99.90;;;;;;4930871;29;20056;-75
2023/05/30 09:57:51;;;;;;;2.35;1.15;;;15.80;99.90;;;;;;4901316;29;20098;-77
2023/05/30 10:00:30;;;;;;;1.30;1.00;;;15.80;99.90;;;;;;4914986;28;20050;-78
2023/05/30 10:02:57;;;;;;;2.10;1.10;;;15.50;99.90;;;;;;4911825;29;20048;-78
2023/05/30 10:05:25;;;;;;;1.20;0.90;;;15.70;99.90;;;;;;4998045;28;20051;-77
2023/05/30 10:07:55;;;;;;;1.42;0.82;;;15.80;99.90;;;;;;4914891;29;20051;-80
2023/05/30 10:10:23;;;;;;;1.35;1.00;;;15.90;99.90;;;;;;4913242;29;20062;-77
2023/05/30 10:12:51;;;;;;;1.45;0.90;;;15.80;99.90;;;;;;4897556;29;20468;-76
2023/05/30 10:15:18;;;;;;;2.05;1.05;;;16.20;99.90;;;;;;4914135;29;20048;-76
2023/05/30 10:18:08;;;;;;;1.63;0.90;;;16.40;99.90;;;;;;4914580;29;20058;-77
2023/05/30 10:20:40;;;;;;;1.08;0.80;;;16.70;99.90;;;;;;4929957;29;20055;-76
2023/05/30 10:23:08;;;;;;;0.70;0.70;;;16.50;99.90;;;;;;4928779;29;20040;-78
2023/05/30 10:25:43;;;;;;;0.70;0.70;;;16.40;99.90;;;;;;4914497;29;20614;-77
2023/05/30 10:28:18;;;;;;;0.73;0.60;;;16.10;99.90;;;;;;4907940;29;20040;-77
2023/05/30 10:30:47;;;;;;;1.02;0.80;;;16.20;99.90;;;;;;4928181;29;20047;-80
2023/05/30 10:33:14;;;;;;;1.60;1.08;;;16.30;99.90;;;;;;4895135;29;20479;-75
2023/05/30 10:35:42;;;;;;;1.27;0.95;;;16.40;99.90;;;;;;4914232;29;20059;-75
2023/05/30 10:38:11;;;;;;;1.65;1.17;;;16.30;99.90;;;;;;4914575;29;20048;-81
2023/05/30 10:41:04;;;;;;;1.00;0.90;;;16.30;99.90;;;;;;4917739;28;20174;-77
2023/05/30 10:44:07;;;;;;;2.22;0.77;;;16.40;99.90;;;;;;4926900;29;20118;-76
2023/05/30 10:46:59;;;;;;;2.03;1.10;;;16.40;99.90;;;;;;4894706;29;20056;-78
2023/05/30 10:49:27;;;;;;;2.67;0.90;;;16.50;99.90;;;;;;4911372;29;20044;-80
2023/05/30 10:52:09;;;;;;;1.27;1.00;;;16.70;99.90;;;;;;4910737;29;20570;-77
2023/05/30 10:54:36;;;;;;;1.73;1.20;;;16.80;99.90;;;;;;4902490;29;20569;-77
2023/05/30 10:57:25;;;;;;;1.58;1.10;;;16.90;99.90;;;;;;4914221;29;20182;-75
2023/05/30 11:00:25;;;;;;;3.80;1.05;;;17.10;99.90;;;;;;4929879;29;20048;-77
2023/05/30 11:02:53;;;;;;;0.98;0.88;;;17.40;99.90;;;;;;4929848;29;20822;-76
2023/05/30 11:05:26;;;;;;;2.65;1.10;;;17.20;99.90;;;;;;4895072;29;20093;-76
2023/05/30 11:07:51;;;;;;;1.83;0.90;;;17.20;99.90;;;;;;4898574;29;20450;-78
2023/05/30 11:10:33;;;;;;;1.40;0.98;;;17.20;99.90;;;;;;4914260;29;20051;-80
2023/05/30 11:13:10;;;;;;;2.67;1.20;;;17.20;99.90;;;;;;4910067;29;20040;-83
2023/05/30 11:15:36;;;;;;;1.10;1.00;;;17.20;99.90;;;;;;4912020;29;20036;-77
2023/05/30 11:18:14;;;;;;;1.50;1.10;;;17.00;99.90;;;;;;4914181;29;20097;-78
2023/05/30 11:20:56;;;;;;;2.80;1.50;;;17.00;99.90;;;;;;4914146;29;20496;-76
2023/05/30 11:23:23;;;;;;;3.13;1.20;;;17.20;99.90;;;;;;4914281;29;20050;-78
2023/05/30 11:25:53;;;;;;;1.10;1.00;;;17.20;99.90;;;;;;4912847;29;20067;-79
2023/05/30 11:28:43;;;;;;;2.38;1.40;;;17.20;99.90;;;;;;4897143;29;20173;-76
2023/05/30 11:31:17;;;;;;;1.95;1.20;;;17.20;99.90;;;;;;4927656;29;20055;-75
2023/05/30 11:33:46;;;;;;;1.10;1.00;;;17.30;99.90;;;;;;4914199;29;20545;-78
2023/05/30 11:36:12;;;;;;;2.42;1.10;;;17.30;99.90;;;;;;4911048;28;20040;-77
2023/05/30 11:38:45;;;;;;;1.33;1.20;;;17.20;99.90;;;;;;4912448;29;20062;-79
2023/05/30 11:41:15;;;;;;;2.60;1.13;;;17.00;99.90;;;;;;4914028;29;20141;-75
2023/05/30 11:43:45;;;;;;;1.52;1.00;;;16.80;99.90;;;;;;4923718;28;20119;-76
2023/05/30 11:46:11;;;;;;;1.48;1.10;;;16.90;99.90;;;;;;4920166;29;20063;-81
2023/05/30 11:48:38;;;;;;;3.45;1.40;;;17.00;99.90;;;;;;4904282;29;20051;-74
2023/05/30 11:51:03;;;;;;;1.95;1.13;;;17.00;99.90;;;;;;4863841;29;20039;-80
2023/05/30 11:53:30;;;;;;;2.95;1.30;;;16.90;99.90;;;;;;4959799;28;20550;-78
2023/05/30 11:55:56;;;;;;;2.38;1.67;;;17.00;99.90;;;;;;4892547;28;20377;-76
2023/05/30 11:58:22;;;;;;;1.70;1.48;;;16.80;99.90;;;;;;4911367;29;20039;-77
2023/05/30 12:00:51;;;;;;;1.20;1.10;;;16.90;99.90;;;;;;4897779;29;20488;-76
2023/05/30 12:03:17;;;;;;;2.25;1.30;;;16.80;99.90;;;;;;4899136;28;20059;-72
2023/05/30 12:05:47;;;;;;;2.08;1.10;;;17.00;99.90;;;;;;4928778;29;20055;-72
2023/05/30 12:08:13;;;;;;;2.17;1.15;;;17.10;99.90;;;;;;4925469;29;20048;-74
2023/05/30 12:10:39;;;;;;;2.00;1.20;;;17.10;99.90;;;;;;4928814;29;20134;-76
2023/05/30 12:13:06;;;;;;;1.30;1.20;;;17.20;99.90;;;;;;4894569;29;20913;-75
2023/05/30 12:15:32;;;;;;;2.63;1.27;;;17.50;99.90;;;;;;4912942;29;20043;-73
2023/05/30 12:18:01;;;;;;;1.27;1.17;;;17.60;99.90;;;;;;4896053;28;20056;-73
2023/05/30 12:20:27;;;;;;;1.75;1.30;;;17.80;99.90;;;;;;4928707;29;20052;-73
2023/05/30 12:22:53;;;;;;;1.30;1.20;;;17.70;99.90;;;;;;4912798;29;20042;-72
2023/05/30 12:25:25;;;;;;;1.55;1.20;;;17.60;99.90;;;;;;4928942;29;20568;-71
2023/05/30 12:27:57;;;;;;;1.30;1.20;;;17.40;99.90;;;;;;4926696;29;20587;-71
2023/05/30 12:30:23;;;;;;;1.63;1.00;;;17.50;99.90;;;;;;4910914;29;20036;-73
2023/05/30 12:32:49;;;;;;;1.10;0.90;;;17.30;99.90;;;;;;4911983;29;20105;-72
2023/05/30 12:35:25;;;;;;;1.60;1.40;;;17.40;99.90;;;;;;4928876;29;20071;-73
2023/05/30 12:37:56;;;;;;;3.55;1.30;;;17.20;99.90;;;;;;4924333;29;20071;-73
2023/05/30 12:40:25;;;;;;;1.30;1.20;;;17.40;99.90;;;;;;4927859;29;20055;-72
2023/05/30 12:42:56;;;;;;;1.88;1.35;;;17.20;99.90;;;;;;4927679;29;20047;-72
2023/05/30 12:45:22;;;;;;;1.85;1.27;;;17.30;99.90;;;;;;4927862;29;20067;-72
2023/05/30 12:47:47;;;;;;;2.17;1.40;;;17.10;99.90;;;;;;4893688;29;20137;-73
2023/05/30 12:50:13;;;;;;;2.47;1.50;;;17.20;99.90;;;;;;4926500;29;20050;-73
2023/05/30 12:52:39;;;;;;;2.33;1.38;;;17.30;99.90;;;;;;4912209;29;20071;-73